sensor_id;sensor_type;location;lat;lon;timestamp;P1;durP1;ratioP1;P2;durP2;ratioP2
3613;SDS011;1821;50.936;6.854;2022-07-06T00:00:20;5.50;;;2.40;;
3613;SDS011;1821;50.936;6.854;2022-07-06T00:01:02;4.60;;;2.95;;
3613;SDS011;1821;50.936;6.854;2022-07-06T00:01:44;5.40;;;2.40;;
3613;SDS011;1821;50.936;6.854;2022-07-06T00:02:26;5.27;;;2.30;;
3613;SDS011;1821;50.936;6.854;2022-07-06T00:03:08;4.25;;;2.50;;
3613;SDS011;1821;50.936;6.854;2022-07-06T00:03:49;5.50;;;2.67;;
3613;SDS011;1821;50.936;6.854;2022-07-06T00:04:35;5.82;;;2.50;;
3613;SDS011;1821;50.936;6.854;2022-07-06T00:05:17;4.30;;;2.20;;
3613;SDS011;1821;50.936;6.854;2022-07-06T00:05:59;4.40;;;2.42;;
3613;SDS011;1821;50.936;6.854;2022-07-06T00:06:41;4.47;;;2.60;;
3613;SDS011;1821;50.936;6.854;2022-07-06T00:07:22;4.60;;;2.97;;
3613;SDS011;1821;50.936;6.854;2022-07-06T00:08:05;4.70;;;2.30;;
3613;SDS011;1821;50.936;6.854;2022-07-06T00:08:46;4.07;;;2.35;;
3613;SDS011;1821;50.936;6.854;2022-07-06T00:09:28;5.00;;;2.58;;
3613;SDS011;1821;50.936;6.854;2022-07-06T00:10:10;5.28;;;2.70;;
3613;SDS011;1821;50.936;6.854;2022-07-06T00:10:52;4.22;;;2.47;;
3613;SDS011;1821;50.936;6.854;2022-07-06T00:11:33;3.53;;;2.58;;
3613;SDS011;1821;50.936;6.854;2022-07-06T00:12:18;4.13;;;2.50;;
3613;SDS011;1821;50.936;6.854;2022-07-06T00:13:00;4.45;;;2.45;;
3613;SDS011;1821;50.936;6.854;2022-07-06T00:13:42;3.85;;;2.22;;
3613;SDS011;1821;50.936;6.854;2022-07-06T00:14:23;5.43;;;2.70;;
3613;SDS011;1821;50.936;6.854;2022-07-06T00:15:05;5.60;;;2.80;;
3613;SDS011;1821;50.936;6.854;2022-07-06T00:15:47;4.30;;;2.17;;
3613;SDS011;1821;50.936;6.854;2022-07-06T00:16:29;6.35;;;2.55;;
3613;SDS011;1821;50.936;6.854;2022-07-06T00:17:11;6.40;;;2.30;;
3613;SDS011;1821;50.936;6.854;2022-07-06T00:17:53;4.03;;;2.30;;
3613;SDS011;1821;50.936;6.854;2022-07-06T00:18:35;3.90;;;2.35;;
3613;SDS011;1821;50.936;6.854;2022-07-06T00:19:17;3.80;;;2.60;;
3613;SDS011;1821;50.936;6.854;2022-07-06T00:19:59;5.30;;;2.75;;
3613;SDS011;1821;50.936;6.854;2022-07-06T00:20:41;4.75;;;2.63;;
3613;SDS011;1821;50.936;6.854;2022-07-06T00:21:22;6.18;;;2.45;;
3613;SDS011;1821;50.936;6.854;2022-07-06T00:22:04;6.50;;;2.90;;
3613;SDS011;1821;50.936;6.854;2022-07-06T00:22:46;4.68;;;2.35;;
3613;SDS011;1821;50.936;6.854;2022-07-06T00:23:28;3.20;;;2.17;;
3613;SDS011;1821;50.936;6.854;2022-07-06T00:24:10;5.25;;;2.35;;
3613;SDS011;1821;50.936;6.854;2022-07-06T00:24:52;7.20;;;2.53;;
3613;SDS011;1821;50.936;6.854;2022-07-06T00:25:33;6.32;;;2.30;;
3613;SDS011;1821;50.936;6.854;2022-07-06T00:26:15;4.68;;;2.30;;
3613;SDS011;1821;50.936;6.854;2022-07-06T00:26:57;3.80;;;2.30;;
3613;SDS011;1821;50.936;6.854;2022-07-06T00:27:39;4.85;;;2.53;;
3613;SDS011;1821;50.936;6.854;2022-07-06T00:28:20;4.00;;;2.40;;
3613;SDS011;1821;50.936;6.854;2022-07-06T00:29:03;4.57;;;2.40;;
3613;SDS011;1821;50.936;6.854;2022-07-06T00:29:45;3.75;;;2.40;;
3613;SDS011;1821;50.936;6.854;2022-07-06T00:30:26;3.60;;;2.20;;
3613;SDS011;1821;50.936;6.854;2022-07-06T00:31:08;4.68;;;2.42;;
3613;SDS011;1821;50.936;6.854;2022-07-06T00:31:50;7.63;;;2.28;;
3613;SDS011;1821;50.936;6.854;2022-07-06T00:32:32;7.65;;;2.55;;
3613;SDS011;1821;50.936;6.854;2022-07-06T00:33:14;6.63;;;2.60;;
3613;SDS011;1821;50.936;6.854;2022-07-06T00:33:55;4.03;;;2.00;;
3613;SDS011;1821;50.936;6.854;2022-07-06T00:34:37;3.78;;;2.10;;
3613;SDS011;1821;50.936;6.854;2022-07-06T00:35:20;4.70;;;2.20;;
3613;SDS011;1821;50.936;6.854;2022-07-06T00:36:04;4.22;;;2.13;;
3613;SDS011;1821;50.936;6.854;2022-07-06T00:36:46;7.10;;;2.53;;
3613;SDS011;1821;50.936;6.854;2022-07-06T00:37:28;5.78;;;2.17;;
3613;SDS011;1821;50.936;6.854;2022-07-06T00:38:09;4.03;;;2.10;;
3613;SDS011;1821;50.936;6.854;2022-07-06T00:38:51;3.47;;;2.33;;
3613;SDS011;1821;50.936;6.854;2022-07-06T00:39:33;5.65;;;2.30;;
3613;SDS011;1821;50.936;6.854;2022-07-06T00:40:15;4.07;;;2.40;;
3613;SDS011;1821;50.936;6.854;2022-07-06T00:40:57;4.32;;;2.50;;
3613;SDS011;1821;50.936;6.854;2022-07-06T00:41:39;4.50;;;2.30;;
3613;SDS011;1821;50.936;6.854;2022-07-06T00:42:20;5.43;;;2.20;;
3613;SDS011;1821;50.936;6.854;2022-07-06T00:43:02;5.10;;;2.40;;
3613;SDS011;1821;50.936;6.854;2022-07-06T00:43:50;5.82;;;2.20;;
3613;SDS011;1821;50.936;6.854;2022-07-06T00:44:33;6.50;;;2.30;;
3613;SDS011;1821;50.936;6.854;2022-07-06T00:45:16;4.25;;;2.10;;
3613;SDS011;1821;50.936;6.854;2022-07-06T00:45:59;6.90;;;2.30;;
3613;SDS011;1821;50.936;6.854;2022-07-06T00:46:40;8.80;;;2.60;;
3613;SDS011;1821;50.936;6.854;2022-07-06T00:47:22;5.25;;;2.60;;
3613;SDS011;1821;50.936;6.854;2022-07-06T00:48:04;5.22;;;2.25;;
3613;SDS011;1821;50.936;6.854;2022-07-06T00:48:46;5.47;;;2.17;;
3613;SDS011;1821;50.936;6.854;2022-07-06T00:49:28;3.90;;;2.10;;
3613;SDS011;1821;50.936;6.854;2022-07-06T00:50:38;4.93;;;2.47;;
3613;SDS011;1821;50.936;6.854;2022-07-06T00:51:22;5.47;;;2.28;;
3613;SDS011;1821;50.936;6.854;2022-07-06T00:52:06;6.22;;;2.40;;
3613;SDS011;1821;50.936;6.854;2022-07-06T00:52:49;5.70;;;2.40;;
3613;SDS011;1821;50.936;6.854;2022-07-06T00:53:31;4.28;;;2.60;;
3613;SDS011;1821;50.936;6.854;2022-07-06T00:54:13;4.95;;;2.40;;
3613;SDS011;1821;50.936;6.854;2022-07-06T00:54:55;4.20;;;2.40;;
3613;SDS011;1821;50.936;6.854;2022-07-06T00:55:38;5.65;;;2.50;;
3613;SDS011;1821;50.936;6.854;2022-07-06T00:56:21;5.00;;;2.22;;
3613;SDS011;1821;50.936;6.854;2022-07-06T00:57:03;4.38;;;2.72;;
3613;SDS011;1821;50.936;6.854;2022-07-06T00:57:45;5.13;;;3.00;;
3613;SDS011;1821;50.936;6.854;2022-07-06T00:58:28;4.28;;;2.72;;
3613;SDS011;1821;50.936;6.854;2022-07-06T00:59:10;4.70;;;2.60;;
3613;SDS011;1821;50.936;6.854;2022-07-06T00:59:51;6.60;;;3.00;;
3613;SDS011;1821;50.936;6.854;2022-07-06T01:00:33;5.22;;;2.63;;
3613;SDS011;1821;50.936;6.854;2022-07-06T01:01:16;4.78;;;2.90;;
3613;SDS011;1821;50.936;6.854;2022-07-06T01:01:58;4.97;;;2.63;;
3613;SDS011;1821;50.936;6.854;2022-07-06T01:02:40;4.40;;;2.50;;
3613;SDS011;1821;50.936;6.854;2022-07-06T01:03:22;3.92;;;2.58;;
3613;SDS011;1821;50.936;6.854;2022-07-06T01:04:04;5.32;;;2.50;;
3613;SDS011;1821;50.936;6.854;2022-07-06T01:04:45;4.90;;;2.20;;
3613;SDS011;1821;50.936;6.854;2022-07-06T01:05:27;4.47;;;2.15;;
3613;SDS011;1821;50.936;6.854;2022-07-06T01:06:10;5.00;;;2.50;;
3613;SDS011;1821;50.936;6.854;2022-07-06T01:06:52;4.60;;;2.80;;
3613;SDS011;1821;50.936;6.854;2022-07-06T01:07:35;4.20;;;2.40;;
3613;SDS011;1821;50.936;6.854;2022-07-06T01:08:17;3.47;;;2.53;;
3613;SDS011;1821;50.936;6.854;2022-07-06T01:09:00;5.30;;;3.00;;
3613;SDS011;1821;50.936;6.854;2022-07-06T01:09:42;4.07;;;2.38;;
3613;SDS011;1821;50.936;6.854;2022-07-06T01:10:25;3.85;;;2.45;;
3613;SDS011;1821;50.936;6.854;2022-07-06T01:11:09;3.95;;;2.30;;
3613;SDS011;1821;50.936;6.854;2022-07-06T01:11:52;4.85;;;2.60;;
3613;SDS011;1821;50.936;6.854;2022-07-06T01:12:35;4.30;;;2.38;;
3613;SDS011;1821;50.936;6.854;2022-07-06T01:13:17;4.75;;;2.40;;
3613;SDS011;1821;50.936;6.854;2022-07-06T01:13:59;4.10;;;2.50;;
3613;SDS011;1821;50.936;6.854;2022-07-06T01:14:42;5.10;;;2.70;;
3613;SDS011;1821;50.936;6.854;2022-07-06T01:15:25;5.63;;;2.85;;
3613;SDS011;1821;50.936;6.854;2022-07-06T01:16:07;4.07;;;2.55;;
3613;SDS011;1821;50.936;6.854;2022-07-06T01:16:48;5.30;;;2.67;;
3613;SDS011;1821;50.936;6.854;2022-07-06T01:17:33;5.13;;;2.70;;
3613;SDS011;1821;50.936;6.854;2022-07-06T01:18:15;4.30;;;2.90;;
3613;SDS011;1821;50.936;6.854;2022-07-06T01:18:57;4.25;;;2.90;;
3613;SDS011;1821;50.936;6.854;2022-07-06T01:19:39;6.15;;;3.15;;
3613;SDS011;1821;50.936;6.854;2022-07-06T01:20:21;6.50;;;3.00;;
3613;SDS011;1821;50.936;6.854;2022-07-06T01:21:11;3.78;;;2.80;;
3613;SDS011;1821;50.936;6.854;2022-07-06T01:21:54;5.80;;;3.10;;
3613;SDS011;1821;50.936;6.854;2022-07-06T01:22:38;4.20;;;2.70;;
3613;SDS011;1821;50.936;6.854;2022-07-06T01:23:20;5.18;;;2.70;;
3613;SDS011;1821;50.936;6.854;2022-07-06T01:24:02;5.80;;;2.70;;
3613;SDS011;1821;50.936;6.854;2022-07-06T01:24:44;6.07;;;2.80;;
3613;SDS011;1821;50.936;6.854;2022-07-06T01:25:26;5.72;;;2.70;;
3613;SDS011;1821;50.936;6.854;2022-07-06T01:26:11;4.70;;;2.50;;
3613;SDS011;1821;50.936;6.854;2022-07-06T01:26:57;6.15;;;2.95;;
3613;SDS011;1821;50.936;6.854;2022-07-06T01:27:39;7.78;;;3.17;;
3613;SDS011;1821;50.936;6.854;2022-07-06T01:28:21;7.78;;;3.00;;
3613;SDS011;1821;50.936;6.854;2022-07-06T01:29:04;5.57;;;2.90;;
3613;SDS011;1821;50.936;6.854;2022-07-06T01:29:46;5.20;;;3.05;;
3613;SDS011;1821;50.936;6.854;2022-07-06T01:30:28;5.70;;;2.83;;
3613;SDS011;1821;50.936;6.854;2022-07-06T01:31:23;5.00;;;2.40;;
3613;SDS011;1821;50.936;6.854;2022-07-06T01:32:06;5.80;;;3.10;;
3613;SDS011;1821;50.936;6.854;2022-07-06T01:32:48;6.20;;;2.70;;
3613;SDS011;1821;50.936;6.854;2022-07-06T01:33:29;5.05;;;2.80;;
3613;SDS011;1821;50.936;6.854;2022-07-06T01:34:12;3.80;;;2.50;;
3613;SDS011;1821;50.936;6.854;2022-07-06T01:34:54;4.13;;;2.30;;
3613;SDS011;1821;50.936;6.854;2022-07-06T01:35:36;6.85;;;2.92;;
3613;SDS011;1821;50.936;6.854;2022-07-06T01:36:20;5.10;;;2.85;;
3613;SDS011;1821;50.936;6.854;2022-07-06T01:37:02;5.03;;;2.50;;
3613;SDS011;1821;50.936;6.854;2022-07-06T01:37:44;5.25;;;2.70;;
3613;SDS011;1821;50.936;6.854;2022-07-06T01:38:25;4.40;;;2.70;;
3613;SDS011;1821;50.936;6.854;2022-07-06T01:39:07;5.55;;;2.78;;
3613;SDS011;1821;50.936;6.854;2022-07-06T01:39:50;6.20;;;2.85;;
3613;SDS011;1821;50.936;6.854;2022-07-06T01:40:31;4.30;;;2.80;;
3613;SDS011;1821;50.936;6.854;2022-07-06T01:41:13;3.45;;;2.72;;
3613;SDS011;1821;50.936;6.854;2022-07-06T01:41:55;5.70;;;2.90;;
3613;SDS011;1821;50.936;6.854;2022-07-06T01:42:37;7.32;;;3.13;;
3613;SDS011;1821;50.936;6.854;2022-07-06T01:43:19;4.57;;;3.08;;
3613;SDS011;1821;50.936;6.854;2022-07-06T01:44:01;3.70;;;2.58;;
3613;SDS011;1821;50.936;6.854;2022-07-06T01:44:44;3.60;;;2.50;;
3613;SDS011;1821;50.936;6.854;2022-07-06T01:45:25;4.93;;;2.60;;
3613;SDS011;1821;50.936;6.854;2022-07-06T01:46:07;5.22;;;2.60;;
3613;SDS011;1821;50.936;6.854;2022-07-06T01:46:49;7.20;;;3.10;;
3613;SDS011;1821;50.936;6.854;2022-07-06T01:47:31;4.90;;;2.92;;
3613;SDS011;1821;50.936;6.854;2022-07-06T01:48:14;6.15;;;3.10;;
3613;SDS011;1821;50.936;6.854;2022-07-06T01:48:56;4.93;;;2.67;;
3613;SDS011;1821;50.936;6.854;2022-07-06T01:49:40;4.43;;;2.63;;
3613;SDS011;1821;50.936;6.854;2022-07-06T01:50:23;5.22;;;3.00;;
3613;SDS011;1821;50.936;6.854;2022-07-06T01:51:05;7.05;;;3.10;;
3613;SDS011;1821;50.936;6.854;2022-07-06T01:51:47;7.75;;;3.22;;
3613;SDS011;1821;50.936;6.854;2022-07-06T01:52:29;7.15;;;2.92;;
3613;SDS011;1821;50.936;6.854;2022-07-06T01:53:12;3.40;;;2.30;;
3613;SDS011;1821;50.936;6.854;2022-07-06T01:53:53;4.20;;;2.58;;
3613;SDS011;1821;50.936;6.854;2022-07-06T01:54:35;5.85;;;2.53;;
3613;SDS011;1821;50.936;6.854;2022-07-06T01:55:17;4.78;;;2.80;;
3613;SDS011;1821;50.936;6.854;2022-07-06T01:55:59;5.22;;;2.72;;
3613;SDS011;1821;50.936;6.854;2022-07-06T01:56:40;8.35;;;3.00;;
3613;SDS011;1821;50.936;6.854;2022-07-06T01:57:22;6.20;;;2.63;;
3613;SDS011;1821;50.936;6.854;2022-07-06T01:58:04;4.43;;;2.75;;
3613;SDS011;1821;50.936;6.854;2022-07-06T01:58:48;5.07;;;2.67;;
3613;SDS011;1821;50.936;6.854;2022-07-06T01:59:29;4.60;;;2.40;;
3613;SDS011;1821;50.936;6.854;2022-07-06T02:00:11;5.80;;;2.60;;
3613;SDS011;1821;50.936;6.854;2022-07-06T02:00:53;6.05;;;2.65;;
3613;SDS011;1821;50.936;6.854;2022-07-06T02:01:35;5.18;;;2.70;;
3613;SDS011;1821;50.936;6.854;2022-07-06T02:02:17;5.10;;;2.80;;
3613;SDS011;1821;50.936;6.854;2022-07-06T02:02:59;4.85;;;2.80;;
3613;SDS011;1821;50.936;6.854;2022-07-06T02:03:41;4.32;;;2.60;;
3613;SDS011;1821;50.936;6.854;2022-07-06T02:04:24;4.32;;;2.70;;
3613;SDS011;1821;50.936;6.854;2022-07-06T02:05:06;5.18;;;2.50;;
3613;SDS011;1821;50.936;6.854;2022-07-06T02:05:48;4.28;;;2.47;;
3613;SDS011;1821;50.936;6.854;2022-07-06T02:06:30;4.65;;;2.40;;
3613;SDS011;1821;50.936;6.854;2022-07-06T02:07:11;4.22;;;2.63;;
3613;SDS011;1821;50.936;6.854;2022-07-06T02:07:53;4.00;;;2.70;;
3613;SDS011;1821;50.936;6.854;2022-07-06T02:08:35;3.75;;;2.40;;
3613;SDS011;1821;50.936;6.854;2022-07-06T02:09:17;3.88;;;2.40;;
3613;SDS011;1821;50.936;6.854;2022-07-06T02:09:59;5.03;;;2.53;;
3613;SDS011;1821;50.936;6.854;2022-07-06T02:10:40;5.45;;;2.60;;
3613;SDS011;1821;50.936;6.854;2022-07-06T02:11:22;4.15;;;2.97;;
3613;SDS011;1821;50.936;6.854;2022-07-06T02:12:04;5.95;;;2.63;;
3613;SDS011;1821;50.936;6.854;2022-07-06T02:12:46;6.28;;;2.40;;
3613;SDS011;1821;50.936;6.854;2022-07-06T02:13:28;4.38;;;2.92;;
3613;SDS011;1821;50.936;6.854;2022-07-06T02:14:10;6.03;;;3.33;;
3613;SDS011;1821;50.936;6.854;2022-07-06T02:14:52;4.65;;;2.35;;
3613;SDS011;1821;50.936;6.854;2022-07-06T02:15:34;6.03;;;2.70;;
3613;SDS011;1821;50.936;6.854;2022-07-06T02:16:15;3.42;;;2.42;;
3613;SDS011;1821;50.936;6.854;2022-07-06T02:16:57;3.75;;;2.08;;
3613;SDS011;1821;50.936;6.854;2022-07-06T02:17:39;4.43;;;2.67;;
3613;SDS011;1821;50.936;6.854;2022-07-06T02:18:21;5.15;;;2.75;;
3613;SDS011;1821;50.936;6.854;2022-07-06T02:19:04;4.63;;;2.58;;
3613;SDS011;1821;50.936;6.854;2022-07-06T02:19:45;5.40;;;2.97;;
3613;SDS011;1821;50.936;6.854;2022-07-06T02:20:27;5.97;;;3.00;;
3613;SDS011;1821;50.936;6.854;2022-07-06T02:21:09;5.28;;;2.95;;
3613;SDS011;1821;50.936;6.854;2022-07-06T02:21:51;4.50;;;2.50;;
3613;SDS011;1821;50.936;6.854;2022-07-06T02:22:32;3.97;;;2.42;;
3613;SDS011;1821;50.936;6.854;2022-07-06T02:23:14;4.00;;;2.50;;
3613;SDS011;1821;50.936;6.854;2022-07-06T02:23:56;3.75;;;2.30;;
3613;SDS011;1821;50.936;6.854;2022-07-06T02:24:37;4.85;;;2.30;;
3613;SDS011;1821;50.936;6.854;2022-07-06T02:25:19;5.00;;;2.70;;
3613;SDS011;1821;50.936;6.854;2022-07-06T02:26:01;3.72;;;2.25;;
3613;SDS011;1821;50.936;6.854;2022-07-06T02:26:43;6.10;;;2.30;;
3613;SDS011;1821;50.936;6.854;2022-07-06T02:27:24;5.45;;;2.53;;
3613;SDS011;1821;50.936;6.854;2022-07-06T02:28:06;5.05;;;2.90;;
3613;SDS011;1821;50.936;6.854;2022-07-06T02:28:48;6.50;;;2.83;;
3613;SDS011;1821;50.936;6.854;2022-07-06T02:29:30;6.78;;;2.67;;
3613;SDS011;1821;50.936;6.854;2022-07-06T02:30:11;5.30;;;2.33;;
3613;SDS011;1821;50.936;6.854;2022-07-06T02:30:56;5.35;;;2.13;;
3613;SDS011;1821;50.936;6.854;2022-07-06T02:31:38;4.28;;;2.17;;
3613;SDS011;1821;50.936;6.854;2022-07-06T02:32:20;5.28;;;2.50;;
3613;SDS011;1821;50.936;6.854;2022-07-06T02:33:02;6.07;;;2.47;;
3613;SDS011;1821;50.936;6.854;2022-07-06T02:33:44;5.93;;;2.40;;
3613;SDS011;1821;50.936;6.854;2022-07-06T02:34:25;7.05;;;2.60;;
3613;SDS011;1821;50.936;6.854;2022-07-06T02:35:07;5.15;;;2.50;;
3613;SDS011;1821;50.936;6.854;2022-07-06T02:35:49;4.80;;;2.58;;
3613;SDS011;1821;50.936;6.854;2022-07-06T02:36:31;6.22;;;2.80;;
3613;SDS011;1821;50.936;6.854;2022-07-06T02:37:13;4.00;;;2.55;;
3613;SDS011;1821;50.936;6.854;2022-07-06T02:37:54;3.92;;;2.65;;
3613;SDS011;1821;50.936;6.854;2022-07-06T02:38:36;6.70;;;2.83;;
3613;SDS011;1821;50.936;6.854;2022-07-06T02:39:18;4.82;;;2.28;;
3613;SDS011;1821;50.936;6.854;2022-07-06T02:39:59;4.60;;;2.50;;
3613;SDS011;1821;50.936;6.854;2022-07-06T02:40:42;4.45;;;2.60;;
3613;SDS011;1821;50.936;6.854;2022-07-06T02:41:24;4.30;;;2.33;;
3613;SDS011;1821;50.936;6.854;2022-07-06T02:42:06;6.53;;;2.40;;
3613;SDS011;1821;50.936;6.854;2022-07-06T02:42:47;5.35;;;2.40;;
3613;SDS011;1821;50.936;6.854;2022-07-06T02:43:29;5.25;;;2.70;;
3613;SDS011;1821;50.936;6.854;2022-07-06T02:44:11;5.18;;;2.78;;
3613;SDS011;1821;50.936;6.854;2022-07-06T02:44:53;7.45;;;3.08;;
3613;SDS011;1821;50.936;6.854;2022-07-06T02:45:35;6.38;;;2.58;;
3613;SDS011;1821;50.936;6.854;2022-07-06T02:46:17;5.47;;;2.83;;
3613;SDS011;1821;50.936;6.854;2022-07-06T02:46:58;6.43;;;2.67;;
3613;SDS011;1821;50.936;6.854;2022-07-06T02:47:40;4.75;;;2.53;;
3613;SDS011;1821;50.936;6.854;2022-07-06T02:48:22;3.55;;;2.35;;
3613;SDS011;1821;50.936;6.854;2022-07-06T02:49:04;4.07;;;2.42;;
3613;SDS011;1821;50.936;6.854;2022-07-06T02:49:46;4.53;;;2.53;;
3613;SDS011;1821;50.936;6.854;2022-07-06T02:50:28;6.45;;;2.70;;
3613;SDS011;1821;50.936;6.854;2022-07-06T02:51:10;3.92;;;2.40;;
3613;SDS011;1821;50.936;6.854;2022-07-06T02:51:52;4.07;;;2.28;;
3613;SDS011;1821;50.936;6.854;2022-07-06T02:52:33;3.28;;;2.30;;
3613;SDS011;1821;50.936;6.854;2022-07-06T02:53:21;4.70;;;2.70;;
3613;SDS011;1821;50.936;6.854;2022-07-06T02:54:02;6.15;;;2.55;;
3613;SDS011;1821;50.936;6.854;2022-07-06T02:54:44;5.50;;;2.40;;
3613;SDS011;1821;50.936;6.854;2022-07-06T02:55:26;3.60;;;2.22;;
3613;SDS011;1821;50.936;6.854;2022-07-06T02:56:08;6.53;;;2.50;;
3613;SDS011;1821;50.936;6.854;2022-07-06T02:56:50;5.85;;;2.80;;
3613;SDS011;1821;50.936;6.854;2022-07-06T02:57:35;5.32;;;2.47;;
3613;SDS011;1821;50.936;6.854;2022-07-06T02:58:16;4.50;;;2.38;;
3613;SDS011;1821;50.936;6.854;2022-07-06T02:58:58;6.20;;;2.50;;
3613;SDS011;1821;50.936;6.854;2022-07-06T02:59:40;5.32;;;2.90;;
3613;SDS011;1821;50.936;6.854;2022-07-06T03:00:22;4.80;;;2.65;;
3613;SDS011;1821;50.936;6.854;2022-07-06T03:01:03;7.00;;;2.60;;
3613;SDS011;1821;50.936;6.854;2022-07-06T03:01:45;9.75;;;2.60;;
3613;SDS011;1821;50.936;6.854;2022-07-06T03:02:27;7.30;;;2.80;;
3613;SDS011;1821;50.936;6.854;2022-07-06T03:03:09;5.57;;;2.90;;
3613;SDS011;1821;50.936;6.854;2022-07-06T03:03:51;5.97;;;2.90;;
3613;SDS011;1821;50.936;6.854;2022-07-06T03:04:33;5.68;;;2.80;;
3613;SDS011;1821;50.936;6.854;2022-07-06T03:05:15;5.75;;;3.10;;
3613;SDS011;1821;50.936;6.854;2022-07-06T03:05:57;5.13;;;2.70;;
3613;SDS011;1821;50.936;6.854;2022-07-06T03:06:39;6.50;;;2.88;;
3613;SDS011;1821;50.936;6.854;2022-07-06T03:07:20;4.25;;;2.53;;
3613;SDS011;1821;50.936;6.854;2022-07-06T03:08:02;4.40;;;2.85;;
3613;SDS011;1821;50.936;6.854;2022-07-06T03:08:44;4.63;;;2.72;;
3613;SDS011;1821;50.936;6.854;2022-07-06T03:09:26;4.88;;;2.60;;
3613;SDS011;1821;50.936;6.854;2022-07-06T03:10:08;4.32;;;2.50;;
3613;SDS011;1821;50.936;6.854;2022-07-06T03:10:50;5.88;;;2.72;;
3613;SDS011;1821;50.936;6.854;2022-07-06T03:11:31;5.85;;;2.60;;
3613;SDS011;1821;50.936;6.854;2022-07-06T03:12:17;4.63;;;2.45;;
3613;SDS011;1821;50.936;6.854;2022-07-06T03:12:58;6.10;;;2.60;;
3613;SDS011;1821;50.936;6.854;2022-07-06T03:13:40;4.97;;;2.60;;
3613;SDS011;1821;50.936;6.854;2022-07-06T03:14:22;5.70;;;2.60;;
3613;SDS011;1821;50.936;6.854;2022-07-06T03:15:06;4.75;;;2.70;;
3613;SDS011;1821;50.936;6.854;2022-07-06T03:15:50;5.57;;;2.60;;
3613;SDS011;1821;50.936;6.854;2022-07-06T03:16:32;6.35;;;2.95;;
3613;SDS011;1821;50.936;6.854;2022-07-06T03:17:14;7.47;;;2.90;;
3613;SDS011;1821;50.936;6.854;2022-07-06T03:17:58;4.53;;;2.90;;
3613;SDS011;1821;50.936;6.854;2022-07-06T03:18:40;4.60;;;2.90;;
3613;SDS011;1821;50.936;6.854;2022-07-06T03:19:22;5.45;;;2.50;;
3613;SDS011;1821;50.936;6.854;2022-07-06T03:20:11;4.50;;;2.40;;
3613;SDS011;1821;50.936;6.854;2022-07-06T03:20:53;7.28;;;2.60;;
3613;SDS011;1821;50.936;6.854;2022-07-06T03:21:35;6.45;;;2.53;;
3613;SDS011;1821;50.936;6.854;2022-07-06T03:22:16;8.15;;;2.65;;
3613;SDS011;1821;50.936;6.854;2022-07-06T03:22:58;5.82;;;2.95;;
3613;SDS011;1821;50.936;6.854;2022-07-06T03:23:40;5.72;;;2.92;;
3613;SDS011;1821;50.936;6.854;2022-07-06T03:24:22;4.85;;;3.00;;
3613;SDS011;1821;50.936;6.854;2022-07-06T03:25:03;6.35;;;3.00;;
3613;SDS011;1821;50.936;6.854;2022-07-06T03:25:46;6.47;;;2.77;;
3613;SDS011;1821;50.936;6.854;2022-07-06T03:26:27;4.35;;;2.50;;
3613;SDS011;1821;50.936;6.854;2022-07-06T03:27:09;5.90;;;2.60;;
3613;SDS011;1821;50.936;6.854;2022-07-06T03:27:54;5.60;;;2.20;;
3613;SDS011;1821;50.936;6.854;2022-07-06T03:28:36;5.18;;;2.70;;
3613;SDS011;1821;50.936;6.854;2022-07-06T03:29:17;5.90;;;3.00;;
3613;SDS011;1821;50.936;6.854;2022-07-06T03:29:59;5.45;;;3.10;;
3613;SDS011;1821;50.936;6.854;2022-07-06T03:30:41;4.63;;;3.00;;
3613;SDS011;1821;50.936;6.854;2022-07-06T03:31:23;5.78;;;3.00;;
3613;SDS011;1821;50.936;6.854;2022-07-06T03:32:05;5.75;;;2.83;;
3613;SDS011;1821;50.936;6.854;2022-07-06T03:32:47;6.53;;;2.60;;
3613;SDS011;1821;50.936;6.854;2022-07-06T03:33:28;5.50;;;2.95;;
3613;SDS011;1821;50.936;6.854;2022-07-06T03:34:10;5.35;;;2.90;;
3613;SDS011;1821;50.936;6.854;2022-07-06T03:34:55;6.10;;;3.17;;
3613;SDS011;1821;50.936;6.854;2022-07-06T03:35:36;5.53;;;3.00;;
3613;SDS011;1821;50.936;6.854;2022-07-06T03:36:18;4.88;;;2.92;;
3613;SDS011;1821;50.936;6.854;2022-07-06T03:37:00;4.57;;;2.90;;
3613;SDS011;1821;50.936;6.854;2022-07-06T03:37:42;4.20;;;2.72;;
3613;SDS011;1821;50.936;6.854;2022-07-06T03:38:23;5.90;;;2.92;;
3613;SDS011;1821;50.936;6.854;2022-07-06T03:39:06;5.03;;;3.10;;
3613;SDS011;1821;50.936;6.854;2022-07-06T03:39:48;5.78;;;2.78;;
3613;SDS011;1821;50.936;6.854;2022-07-06T03:40:30;6.40;;;2.92;;
3613;SDS011;1821;50.936;6.854;2022-07-06T03:41:11;6.05;;;3.00;;
3613;SDS011;1821;50.936;6.854;2022-07-06T03:41:53;4.95;;;2.97;;
3613;SDS011;1821;50.936;6.854;2022-07-06T03:42:35;4.50;;;2.97;;
3613;SDS011;1821;50.936;6.854;2022-07-06T03:43:17;4.40;;;2.80;;
3613;SDS011;1821;50.936;6.854;2022-07-06T03:43:59;5.35;;;3.35;;
3613;SDS011;1821;50.936;6.854;2022-07-06T03:44:41;5.40;;;3.10;;
3613;SDS011;1821;50.936;6.854;2022-07-06T03:45:23;5.20;;;2.47;;
3613;SDS011;1821;50.936;6.854;2022-07-06T03:46:04;5.78;;;2.85;;
3613;SDS011;1821;50.936;6.854;2022-07-06T03:46:46;4.60;;;2.90;;
3613;SDS011;1821;50.936;6.854;2022-07-06T03:47:28;5.93;;;2.75;;
3613;SDS011;1821;50.936;6.854;2022-07-06T03:48:10;6.82;;;3.08;;
3613;SDS011;1821;50.936;6.854;2022-07-06T03:48:52;7.05;;;2.88;;
3613;SDS011;1821;50.936;6.854;2022-07-06T03:49:33;7.70;;;3.50;;
3613;SDS011;1821;50.936;6.854;2022-07-06T03:50:15;8.02;;;2.80;;
3613;SDS011;1821;50.936;6.854;2022-07-06T03:50:57;7.00;;;2.60;;
3613;SDS011;1821;50.936;6.854;2022-07-06T03:51:39;3.40;;;2.63;;
3613;SDS011;1821;50.936;6.854;2022-07-06T03:52:21;6.65;;;3.20;;
3613;SDS011;1821;50.936;6.854;2022-07-06T03:53:03;7.23;;;2.80;;
3613;SDS011;1821;50.936;6.854;2022-07-06T03:53:45;4.80;;;2.92;;
3613;SDS011;1821;50.936;6.854;2022-07-06T03:54:29;5.68;;;3.40;;
3613;SDS011;1821;50.936;6.854;2022-07-06T03:55:11;5.22;;;3.03;;
3613;SDS011;1821;50.936;6.854;2022-07-06T03:55:53;4.15;;;2.78;;
3613;SDS011;1821;50.936;6.854;2022-07-06T03:56:53;6.82;;;3.00;;
3613;SDS011;1821;50.936;6.854;2022-07-06T03:57:35;8.88;;;3.00;;
3613;SDS011;1821;50.936;6.854;2022-07-06T03:58:19;6.75;;;2.80;;
3613;SDS011;1821;50.936;6.854;2022-07-06T03:59:01;5.35;;;3.10;;
3613;SDS011;1821;50.936;6.854;2022-07-06T03:59:44;5.47;;;3.00;;
3613;SDS011;1821;50.936;6.854;2022-07-06T04:00:25;4.68;;;2.70;;
3613;SDS011;1821;50.936;6.854;2022-07-06T04:01:07;7.88;;;3.20;;
3613;SDS011;1821;50.936;6.854;2022-07-06T04:01:49;6.22;;;2.80;;
3613;SDS011;1821;50.936;6.854;2022-07-06T04:02:31;6.15;;;3.10;;
3613;SDS011;1821;50.936;6.854;2022-07-06T04:03:13;7.95;;;3.10;;
3613;SDS011;1821;50.936;6.854;2022-07-06T04:03:55;4.15;;;2.50;;
3613;SDS011;1821;50.936;6.854;2022-07-06T04:04:37;6.32;;;2.90;;
3613;SDS011;1821;50.936;6.854;2022-07-06T04:05:21;6.30;;;2.92;;
3613;SDS011;1821;50.936;6.854;2022-07-06T04:06:04;8.85;;;3.40;;
3613;SDS011;1821;50.936;6.854;2022-07-06T04:06:45;6.00;;;2.95;;
3613;SDS011;1821;50.936;6.854;2022-07-06T04:07:30;5.50;;;2.90;;
3613;SDS011;1821;50.936;6.854;2022-07-06T04:08:12;5.82;;;3.47;;
3613;SDS011;1821;50.936;6.854;2022-07-06T04:08:54;5.70;;;3.22;;
3613;SDS011;1821;50.936;6.854;2022-07-06T04:09:36;6.13;;;3.42;;
3613;SDS011;1821;50.936;6.854;2022-07-06T04:10:17;8.20;;;3.85;;
3613;SDS011;1821;50.936;6.854;2022-07-06T04:10:59;8.02;;;3.30;;
3613;SDS011;1821;50.936;6.854;2022-07-06T04:11:41;7.72;;;3.25;;
3613;SDS011;1821;50.936;6.854;2022-07-06T04:12:23;7.68;;;2.92;;
3613;SDS011;1821;50.936;6.854;2022-07-06T04:13:06;5.22;;;2.90;;
3613;SDS011;1821;50.936;6.854;2022-07-06T04:13:48;5.68;;;2.90;;
3613;SDS011;1821;50.936;6.854;2022-07-06T04:14:30;10.43;;;3.45;;
3613;SDS011;1821;50.936;6.854;2022-07-06T04:15:11;9.40;;;3.58;;
3613;SDS011;1821;50.936;6.854;2022-07-06T04:15:54;7.97;;;3.45;;
3613;SDS011;1821;50.936;6.854;2022-07-06T04:16:36;9.80;;;3.30;;
3613;SDS011;1821;50.936;6.854;2022-07-06T04:17:18;9.02;;;3.65;;
3613;SDS011;1821;50.936;6.854;2022-07-06T04:18:18;4.88;;;2.95;;
3613;SDS011;1821;50.936;6.854;2022-07-06T04:19:01;6.90;;;3.10;;
3613;SDS011;1821;50.936;6.854;2022-07-06T04:19:43;7.00;;;3.38;;
3613;SDS011;1821;50.936;6.854;2022-07-06T04:20:24;5.88;;;3.22;;
3613;SDS011;1821;50.936;6.854;2022-07-06T04:21:09;6.50;;;3.25;;
3613;SDS011;1821;50.936;6.854;2022-07-06T04:21:51;5.60;;;3.70;;
3613;SDS011;1821;50.936;6.854;2022-07-06T04:22:32;5.45;;;3.35;;
3613;SDS011;1821;50.936;6.854;2022-07-06T04:23:14;5.72;;;3.67;;